Time;durP1;ratioP1;P1;durP2;ratioP2;P2;SDS_P1;SDS_P2;PMS_P1;PMS_P2;Temp;Humidity;BMP_temperature;BMP_pressure;BME280_temperature;BME280_humidity;BME280_pressure;Samples;Min_cycle;Max_cycle;Signal;HPM_P1;HPM_P2
2022/03/02 00:00:55;;;;;;;25.83;12.48;;;;;;;4.55;65.61;102562.75;5074451;28;20119;-77
2022/03/02 00:03:21;;;;;;;26.15;12.13;;;;;;;4.43;65.81;102541.69;5074686;28;20154;-76
2022/03/02 00:05:46;;;;;;;24.90;12.32;;;;;;;4.45;65.37;102547.72;5074485;28;20034;-77
2022/03/02 00:08:11;;;;;;;25.52;13.38;;;;;;;4.50;65.81;102561.41;5074133;28;20037;-77
2022/03/02 00:10:37;;;;;;;27.85;14.48;;;;;;;4.48;65.87;102560.69;5074021;28;20603;-77
2022/03/02 00:13:02;;;;;;;24.75;11.93;;;;;;;4.46;66.26;102563.47;5074327;28;20028;-78
2022/03/02 00:15:28;;;;;;;28.08;12.65;;;;;;;4.43;65.74;102568.09;5074103;28;20147;-77
2022/03/02 00:17:53;;;;;;;24.83;11.52;;;;;;;4.38;65.22;102556.09;5073981;28;20039;-77
2022/03/02 00:20:19;;;;;;;24.73;12.88;;;;;;;4.39;65.53;102560.41;5055888;28;20106;-77
2022/03/02 00:22:44;;;;;;;27.33;13.15;;;;;;;4.31;65.35;102546.94;5073704;28;20035;-77
2022/03/02 00:25:10;;;;;;;24.63;11.50;;;;;;;4.37;65.21;102556.19;5073843;28;20036;-77
2022/03/02 00:27:36;;;;;;;27.23;14.27;;;;;;;4.36;65.68;102552.72;5073763;28;20472;-77
2022/03/02 00:30:03;;;;;;;28.38;12.35;;;;;;;4.34;65.28;102552.00;5073463;28;20044;-77
2022/03/02 00:32:28;;;;;;;27.17;12.43;;;;;;;4.34;64.81;102548.50;5073630;28;20028;-77
2022/03/02 00:34:54;;;;;;;27.70;14.55;;;;;;;4.31;65.36;102549.59;5073975;28;20040;-77
2022/03/02 00:37:19;;;;;;;25.00;12.70;;;;;;;4.32;64.99;102548.63;5072492;28;20524;-77
2022/03/02 00:39:45;;;;;;;22.85;11.68;;;;;;;4.29;64.98;102543.56;5073528;28;20093;-77
2022/03/02 00:42:11;;;;;;;23.88;12.13;;;;;;;4.30;64.16;102544.44;5073754;28;20040;-77
2022/03/02 00:44:37;;;;;;;23.70;10.30;;;;;;;4.27;63.75;102542.00;5073448;28;20021;-77
2022/03/02 00:47:04;;;;;;;25.00;12.00;;;;;;;4.23;64.29;102533.47;5073218;28;20487;-77
2022/03/02 00:49:31;;;;;;;24.25;12.52;;;;;;;4.24;63.67;102534.28;5073345;28;20044;-77
2022/03/02 00:51:57;;;;;;;22.10;10.25;;;;;;;4.22;63.20;102531.78;5071683;28;20032;-77
2022/03/02 00:54:23;;;;;;;24.92;11.57;;;;;;;4.22;63.45;102541.47;5072692;28;20392;-77
2022/03/02 00:56:49;;;;;;;23.20;11.60;;;;;;;4.18;63.98;102539.06;5072325;28;20097;-77
2022/03/02 00:59:15;;;;;;;22.95;11.07;;;;;;;4.11;63.57;102526.44;5073718;28;20476;-77
2022/03/02 01:01:40;;;;;;;23.38;11.85;;;;;;;4.07;63.82;102528.47;5073357;28;20021;-77
2022/03/02 01:04:07;;;;;;;22.67;11.95;;;;;;;4.09;63.89;102531.00;5073431;28;20028;-77
2022/03/02 01:06:33;;;;;;;23.95;10.93;;;;;;;4.00;64.20;102516.66;5072897;28;20071;-77
2022/03/02 01:08:58;;;;;;;23.63;11.55;;;;;;;4.01;64.00;102533.34;5074015;28;20063;-77
2022/03/02 01:11:24;;;;;;;21.70;10.85;;;;;;;3.98;64.49;102529.13;5073169;28;20490;-77
2022/03/02 01:13:49;;;;;;;23.35;9.80;;;;;;;3.90;64.52;102521.78;5073105;28;20024;-77
2022/03/02 01:16:15;;;;;;;28.38;13.23;;;;;;;3.91;64.73;102526.09;5073095;28;20070;-77
2022/03/02 01:18:41;;;;;;;25.98;11.43;;;;;;;3.90;64.22;102526.22;5073458;28;20364;-77
2022/03/02 01:21:06;;;;;;;21.52;11.60;;;;;;;3.91;64.45;102525.28;5072763;28;20024;-77
2022/03/02 01:23:32;;;;;;;23.40;11.18;;;;;;;3.85;64.41;102509.88;5073043;28;20071;-77
2022/03/02 01:25:58;;;;;;;24.55;12.57;;;;;;;3.92;64.15;102521.66;5071582;28;20040;-77
2022/03/02 01:28:23;;;;;;;23.27;10.48;;;;;;;3.91;64.43;102512.06;5073043;28;20081;-77
2022/03/02 01:30:48;;;;;;;23.20;11.25;;;;;;;3.92;63.85;102508.47;5072776;28;20098;-77
2022/03/02 01:33:14;;;;;;;22.10;10.80;;;;;;;3.93;64.21;102507.53;5072874;28;20403;-77
2022/03/02 01:35:39;;;;;;;22.90;11.10;;;;;;;3.91;64.18;102510.28;5072901;28;20044;-77
2022/03/02 01:38:04;;;;;;;23.63;11.63;;;;;;;3.86;64.55;102503.66;5072713;28;20043;-77
2022/03/02 01:40:30;;;;;;;22.92;10.52;;;;;;;3.85;64.80;102510.72;5072695;28;20056;-77
2022/03/02 01:42:56;;;;;;;26.23;10.98;;;;;;;3.81;64.71;102503.13;5072445;28;20039;-77
2022/03/02 01:45:21;;;;;;;24.75;12.18;;;;;;;3.78;64.17;102513.91;5072564;28;20399;-77
2022/03/02 01:47:47;;;;;;;22.80;11.70;;;;;;;3.78;63.39;102506.84;5071224;28;20046;-77
2022/03/02 01:50:14;;;;;;;24.85;13.35;;;;;;;3.78;63.22;102501.56;5071986;28;20038;-77
2022/03/02 01:52:40;;;;;;;22.10;10.23;;;;;;;3.81;64.11;102503.97;5071922;28;20105;-77
2022/03/02 01:55:07;;;;;;;24.33;11.13;;;;;;;3.80;64.22;102502.31;5072267;28;20059;-77
2022/03/02 01:57:32;;;;;;;25.05;13.82;;;;;;;3.76;64.55;102500.81;5072240;28;20032;-77
2022/03/02 01:59:58;;;;;;;23.70;11.40;;;;;;;3.70;64.32;102488.09;5072255;28;20028;-77
2022/03/02 02:02:23;;;;;;;23.55;11.43;;;;;;;3.69;64.25;102487.25;5071973;28;20044;-77
2022/03/02 02:04:49;;;;;;;25.63;11.48;;;;;;;3.69;64.59;102494.31;5070162;28;20479;-77
2022/03/02 02:07:14;;;;;;;21.42;11.82;;;;;;;3.70;64.34;102481.00;5072197;28;20039;-77
2022/03/02 02:09:40;;;;;;;24.08;12.15;;;;;;;3.66;64.07;102470.78;5071895;28;20036;-78
2022/03/02 02:12:05;;;;;;;23.40;10.73;;;;;;;3.76;64.56;102482.34;5070657;28;20074;-77
2022/03/02 02:14:31;;;;;;;24.42;11.68;;;;;;;3.70;64.22;102474.91;5071987;28;20468;-77
2022/03/02 02:16:56;;;;;;;24.60;10.93;;;;;;;3.71;64.28;102480.03;5071788;28;20028;-77
2022/03/02 02:19:22;;;;;;;24.00;12.25;;;;;;;3.70;64.76;102480.19;5070375;28;20025;-77
2022/03/02 02:21:48;;;;;;;24.80;10.73;;;;;;;3.66;64.99;102482.16;5071660;28;20031;-77
2022/03/02 02:24:15;;;;;;;25.17;11.60;;;;;;;3.63;64.86;102481.56;5071727;28;20161;-77
2022/03/02 02:26:40;;;;;;;24.23;11.57;;;;;;;3.57;64.74;102463.53;5071455;28;20059;-77
2022/03/02 02:29:06;;;;;;;23.25;11.85;;;;;;;3.55;64.45;102466.28;5071849;28;20032;-77
2022/03/02 02:31:32;;;;;;;24.70;11.30;;;;;;;3.56;64.62;102465.31;5071538;28;20376;-77
2022/03/02 02:33:58;;;;;;;24.60;12.65;;;;;;;3.59;64.63;102467.75;5071779;28;20035;-77
2022/03/02 02:36:23;;;;;;;24.13;12.70;;;;;;;3.53;64.59;102460.28;5071640;28;20064;-77
2022/03/02 02:38:49;;;;;;;23.73;10.13;;;;;;;3.56;64.43;102462.69;5053604;28;20085;-77
2022/03/02 02:41:16;;;;;;;25.23;12.65;;;;;;;3.57;64.66;102453.00;5071640;28;20446;-77
2022/03/02 02:43:42;;;;;;;28.17;10.55;;;;;;;3.51;63.98;102446.34;5071313;28;20032;-77
2022/03/02 02:46:08;;;;;;;23.75;11.05;;;;;;;3.59;64.01;102448.44;5071618;28;20062;-77
2022/03/02 02:48:34;;;;;;;26.20;11.73;;;;;;;3.59;64.00;102453.69;5071432;28;20037;-77
2022/03/02 02:50:59;;;;;;;24.15;11.52;;;;;;;3.60;64.19;102452.78;5069987;28;20025;-77
2022/03/02 02:53:25;;;;;;;23.48;10.27;;;;;;;3.60;64.81;102453.59;5071153;28;20609;-77
2022/03/02 02:55:50;;;;;;;25.50;11.63;;;;;;;3.59;64.48;102459.84;5070966;28;20089;-77
2022/03/02 02:58:16;;;;;;;27.63;13.13;;;;;;;3.57;64.77;102451.19;5069810;28;20114;-77
2022/03/02 03:00:44;;;;;;;30.63;14.15;;;;;;;3.58;64.38;102452.88;5071576;28;20383;-77
2022/03/02 03:03:10;;;;;;;23.13;10.63;;;;;;;3.58;64.45;102446.75;5071067;28;20077;-77
2022/03/02 03:05:36;;;;;;;25.52;11.55;;;;;;;3.60;64.32;102450.13;5071200;28;20032;-77
2022/03/02 03:08:09;;;;;;;25.05;12.02;;;;;;;3.59;64.20;102445.78;5069879;28;20369;-77
2022/03/02 03:10:35;;;;;;;26.05;11.35;;;;;;;3.56;64.69;102440.75;5070622;28;20067;-77
2022/03/02 03:13:01;;;;;;;25.42;10.48;;;;;;;3.59;64.29;102438.75;5070902;28;20507;-77
2022/03/02 03:15:28;;;;;;;25.00;12.27;;;;;;;3.55;64.74;102442.53;5070804;28;20158;-77
2022/03/02 03:17:54;;;;;;;25.10;10.82;;;;;;;3.56;64.31;102436.31;5069776;28;20115;-77
2022/03/02 03:20:23;;;;;;;25.77;12.05;;;;;;;3.50;64.09;102437.59;5070464;28;20108;-77
2022/03/02 03:22:49;;;;;;;23.05;10.75;;;;;;;3.52;64.69;102448.03;5071001;28;20032;-77
2022/03/02 03:25:15;;;;;;;21.75;10.27;;;;;;;3.48;64.28;102444.81;5070938;28;20043;-77
2022/03/02 03:27:42;;;;;;;22.35;11.30;;;;;;;3.47;64.86;102439.63;5071129;28;20109;-77
2022/03/02 03:30:08;;;;;;;24.45;12.27;;;;;;;3.44;64.87;102445.97;5070715;28;20056;-77
2022/03/02 03:32:35;;;;;;;23.75;10.80;;;;;;;3.35;65.20;102437.84;5070575;28;20116;-77
2022/03/02 03:35:01;;;;;;;23.27;11.82;;;;;;;3.37;64.50;102443.88;5069623;28;20448;-77
2022/03/02 03:37:27;;;;;;;22.05;10.82;;;;;;;3.35;65.81;102443.13;5069529;28;20108;-77
2022/03/02 03:39:52;;;;;;;25.48;10.18;;;;;;;3.32;66.11;102440.72;5070370;28;20032;-77
2022/03/02 03:42:18;;;;;;;26.95;12.57;;;;;;;3.30;65.05;102440.81;5068822;28;20044;-77
2022/03/02 03:44:43;;;;;;;22.52;10.00;;;;;;;3.31;66.71;102444.31;5069329;28;20032;-77
2022/03/02 03:47:09;;;;;;;23.50;10.55;;;;;;;3.28;66.92;102440.94;5070033;28;20071;-77
2022/03/02 03:49:34;;;;;;;23.38;11.38;;;;;;;3.27;65.97;102438.41;5070541;28;20028;-77
2022/03/02 03:52:00;;;;;;;28.75;10.40;;;;;;;3.26;65.48;102439.38;5070580;28;20039;-77
2022/03/02 03:54:25;;;;;;;24.48;11.18;;;;;;;3.16;65.26;102433.06;5069293;28;20040;-77
2022/03/02 03:56:51;;;;;;;22.30;11.32;;;;;;;3.14;65.51;102433.16;5069260;28;20039;-77
2022/03/02 03:59:16;;;;;;;22.33;11.30;;;;;;;3.10;65.86;102436.16;5070384;28;20089;-77
2022/03/02 04:01:42;;;;;;;23.52;11.80;;;;;;;3.09;65.12;102435.28;5070655;28;20510;-77
2022/03/02 04:04:07;;;;;;;25.63;11.27;;;;;;;3.09;65.85;102437.91;5069097;28;20490;-77
2022/03/02 04:06:33;;;;;;;20.00;10.93;;;;;;;3.07;68.91;102435.41;5070164;28;20036;-77
2022/03/02 04:08:58;;;;;;;22.80;11.40;;;;;;;3.03;67.88;102433.94;5070145;28;20024;-77
2022/03/02 04:11:23;;;;;;;23.55;11.68;;;;;;;2.97;68.06;102428.25;5070460;28;20067;-77
2022/03/02 04:13:49;;;;;;;29.15;13.48;;;;;;;2.95;69.53;102423.09;5069207;28;20024;-77
2022/03/02 04:16:14;;;;;;;25.00;10.45;;;;;;;2.88;70.10;102429.72;5070536;28;20025;-77
2022/03/02 04:18:40;;;;;;;23.05;12.38;;;;;;;2.80;70.96;102421.53;5070499;28;20066;-77
2022/03/02 04:21:05;;;;;;;21.98;10.80;;;;;;;2.72;71.48;102421.22;5070468;28;20029;-77
2022/03/02 04:23:31;;;;;;;27.75;14.30;;;;;;;2.66;71.95;102416.38;5070112;28;20126;-77
2022/03/02 04:25:56;;;;;;;22.98;11.15;;;;;;;2.59;72.56;102408.91;5070085;28;20179;-76
2022/03/02 04:28:21;;;;;;;25.58;12.15;;;;;;;2.54;72.76;102418.91;5070479;28;20051;-77
2022/03/02 04:30:47;;;;;;;25.27;11.30;;;;;;;2.48;71.35;102407.94;5073487;28;20041;-77
2022/03/02 04:33:12;;;;;;;22.08;10.98;;;;;;;2.45;73.03;102413.44;5073482;28;20422;-76
2022/03/02 04:35:39;;;;;;;21.77;11.98;;;;;;;2.38;72.88;102398.06;5073658;28;20445;-77
2022/03/02 04:38:04;;;;;;;22.95;9.63;;;;;;;2.39;73.37;102399.75;5073748;28;20039;-77
2022/03/02 04:40:30;;;;;;;22.92;10.18;;;;;;;2.40;72.04;102397.94;5073565;28;20033;-76
2022/03/02 04:42:56;;;;;;;27.92;11.70;;;;;;;2.37;73.53;102396.34;5073487;28;20043;-76
2022/03/02 04:45:27;;;;;;;22.63;10.10;;;;;;;2.38;75.08;102398.06;5071846;28;20028;-76
2022/03/02 04:47:53;;;;;;;22.38;11.38;;;;;;;2.32;74.53;102390.56;5073065;28;20104;-76
2022/03/02 04:50:19;;;;;;;23.83;12.02;;;;;;;2.31;74.53;102395.94;5071994;28;20036;-77
2022/03/02 04:52:46;;;;;;;20.70;10.80;;;;;;;2.26;72.96;102398.06;5072774;28;20082;-77
2022/03/02 04:55:12;;;;;;;25.20;11.75;;;;;;;2.21;71.74;102402.78;5073054;28;20033;-77
2022/03/02 04:57:49;;;;;;;25.15;11.52;;;;;;;2.28;70.85;102399.63;5073260;28;20108;-76
2022/03/02 05:00:17;;;;;;;26.58;9.73;;;;;;;2.34;70.86;102399.22;5072314;28;20024;-77
2022/03/02 05:02:43;;;;;;;29.20;10.25;;;;;;;2.35;72.28;102390.34;5072956;28;20028;-77
2022/03/02 05:05:11;;;;;;;22.48;10.63;;;;;;;2.28;74.28;102388.25;5071460;28;20033;-77
2022/03/02 05:07:37;;;;;;;22.77;11.27;;;;;;;2.27;74.54;102387.41;5073278;28;20028;-76
2022/03/02 05:10:04;;;;;;;21.58;11.02;;;;;;;2.23;73.31;102388.56;5072997;28;20074;-76
2022/03/02 05:12:30;;;;;;;22.80;11.95;;;;;;;2.23;71.64;102387.72;5072879;28;20033;-77
2022/03/02 05:14:56;;;;;;;22.00;10.57;;;;;;;2.23;72.58;102385.06;5072766;28;20518;-77
2022/03/02 05:17:21;;;;;;;23.88;12.00;;;;;;;2.23;74.08;102385.06;5072871;28;20036;-77
2022/03/02 05:19:46;;;;;;;28.08;12.10;;;;;;;2.17;73.01;102381.94;5071423;28;20469;-77
2022/03/02 05:22:12;;;;;;;24.73;10.50;;;;;;;2.13;74.42;102384.88;5071701;28;20036;-77
2022/03/02 05:24:37;;;;;;;21.58;10.43;;;;;;;2.05;72.48;102374.88;5072450;28;20052;-77
2022/03/02 05:27:04;;;;;;;23.05;11.27;;;;;;;2.07;72.51;102375.63;5072609;28;20036;-77
2022/03/02 05:29:29;;;;;;;22.20;12.45;;;;;;;2.07;73.20;102374.75;5071093;28;20037;-77
2022/03/02 05:31:55;;;;;;;23.63;10.40;;;;;;;2.04;73.26;102372.31;5072380;28;20083;-77
2022/03/02 05:34:20;;;;;;;23.65;11.77;;;;;;;2.02;71.05;102376.84;5072451;28;20029;-76
2022/03/02 05:36:45;;;;;;;22.63;11.35;;;;;;;2.01;69.93;102368.13;5072463;28;20024;-77
2022/03/02 05:39:11;;;;;;;23.30;9.65;;;;;;;2.09;69.55;102373.69;5071269;28;20036;-77
2022/03/02 05:41:38;;;;;;;21.75;10.65;;;;;;;2.11;70.68;102371.81;5072226;28;20483;-76
2022/03/02 05:44:04;;;;;;;24.05;10.80;;;;;;;2.11;69.65;102368.34;5072276;28;20491;-77
2022/03/02 05:46:30;;;;;;;21.92;10.63;;;;;;;2.17;68.57;102373.19;5070901;28;20059;-77
2022/03/02 05:48:55;;;;;;;23.70;11.43;;;;;;;2.13;68.50;102371.72;5072205;28;20119;-77
2022/03/02 05:51:21;;;;;;;24.02;13.43;;;;;;;2.21;68.35;102379.09;5070511;28;20032;-77
2022/03/02 05:53:46;;;;;;;24.23;13.35;;;;;;;2.21;68.26;102376.47;5071538;28;20376;-77
2022/03/02 05:56:11;;;;;;;23.20;9.57;;;;;;;2.23;70.62;102377.19;5071829;28;20059;-77
2022/03/02 05:58:37;;;;;;;24.60;11.75;;;;;;;2.13;70.06;102377.81;5071803;28;20028;-76
2022/03/02 06:01:03;;;;;;;20.02;10.57;;;;;;;2.04;70.76;102373.16;5071703;28;20029;-76
2022/03/02 06:03:29;;;;;;;18.98;10.80;;;;;;;2.01;73.45;102383.91;5070678;28;20025;-77
2022/03/02 06:05:55;;;;;;;21.45;10.70;;;;;;;1.93;73.06;102381.78;5071808;28;20070;-77
2022/03/02 06:08:21;;;;;;;22.95;10.85;;;;;;;1.84;73.25;102378.94;5071708;28;20057;-76
2022/03/02 06:10:47;;;;;;;24.27;10.98;;;;;;;1.83;73.11;102383.34;5070384;28;20071;-77
2022/03/02 06:13:14;;;;;;;25.40;12.15;;;;;;;1.75;73.32;102380.38;5071491;28;20543;-76
2022/03/02 06:15:40;;;;;;;22.73;11.55;;;;;;;1.77;72.94;102394.28;5071567;28;20059;-77
2022/03/02 06:18:06;;;;;;;23.90;11.25;;;;;;;1.70;72.23;102385.09;5071235;28;20442;-76
2022/03/02 06:20:32;;;;;;;22.30;10.25;;;;;;;1.69;71.35;102384.25;5070437;28;20029;-77
2022/03/02 06:22:58;;;;;;;22.70;10.43;;;;;;;1.63;72.32;102366.25;5070169;28;20032;-77
2022/03/02 06:25:24;;;;;;;23.70;11.88;;;;;;;1.74;73.39;102390.06;5070658;28;20059;-76
2022/03/02 06:27:49;;;;;;;23.00;11.40;;;;;;;1.69;73.72;102379.00;5070433;28;20385;-77
2022/03/02 06:30:15;;;;;;;25.90;11.32;;;;;;;1.72;74.52;102391.94;5070932;28;20071;-76
2022/03/02 06:32:40;;;;;;;22.52;11.52;;;;;;;1.72;74.35;102393.72;5071088;28;20089;-76
2022/03/02 06:35:07;;;;;;;22.70;10.68;;;;;;;1.69;74.51;102383.41;5071019;28;20063;-77
2022/03/02 06:37:33;;;;;;;24.48;10.55;;;;;;;1.72;72.27;102394.56;5071213;28;20063;-77
2022/03/02 06:40:06;;;;;;;22.67;9.15;;;;;;;1.71;71.65;102392.06;5070941;28;20040;-77
2022/03/02 06:42:52;;;;;;;27.80;11.48;;;;;;;1.74;71.47;102402.38;5070820;28;20032;-76
2022/03/02 06:45:40;;;;;;;26.98;11.43;;;;;;;1.51;71.15;102353.91;5070982;28;20066;-76
2022/03/02 06:48:20;;;;;;;22.83;10.85;;;;;;;1.84;71.67;102386.81;5070158;28;20093;-77
2022/03/02 06:50:52;;;;;;;22.55;10.38;;;;;;;1.91;70.87;102393.34;5070141;28;20422;-77
2022/03/02 06:53:18;;;;;;;;;;;;;;;2.01;71.09;102397.06;5070931;28;20078;-77
2022/03/02 06:55:44;;;;;;;24.50;12.50;;;;;;;2.05;69.34;102398.56;5070824;28;19963;-76
2022/03/02 06:58:12;;;;;;;23.45;10.43;;;;;;;2.16;68.67;102405.72;5070768;28;20070;-77
2022/03/02 07:00:38;;;;;;;21.48;10.98;;;;;;;2.27;66.98;102410.25;5070577;28;20028;-77
2022/03/02 07:03:07;;;;;;;22.83;11.65;;;;;;;2.45;66.56;102402.91;5070528;28;20480;-76
2022/03/02 07:05:33;;;;;;;23.35;10.60;;;;;;;2.72;65.57;102402.78;5070707;28;20032;-77
2022/03/02 07:08:01;;;;;;;31.02;13.85;;;;;;;2.96;64.81;102408.97;5070832;28;20544;-77
2022/03/02 07:10:27;;;;;;;23.25;11.73;;;;;;;3.04;66.58;102401.38;5070352;28;20043;-76
2022/03/02 07:12:53;;;;;;;21.42;11.25;;;;;;;3.08;65.23;102401.97;5070501;28;20044;-76
2022/03/02 07:15:18;;;;;;;21.02;9.85;;;;;;;3.15;64.30;102410.31;5070828;28;20379;-77
2022/03/02 07:17:44;;;;;;;24.85;11.98;;;;;;;3.08;64.92;102412.53;5070681;28;20032;-77
2022/03/02 07:20:11;;;;;;;27.88;11.27;;;;;;;3.04;64.00;102400.53;5070575;28;20378;-76
2022/03/02 07:22:43;;;;;;;25.13;13.85;;;;;;;3.07;64.38;102406.41;5070667;28;20035;-76
2022/03/02 07:25:27;;;;;;;23.30;10.55;;;;;;;3.08;64.42;102405.44;5070581;28;20574;-76
2022/03/02 07:27:55;;;;;;;20.52;9.82;;;;;;;3.17;66.54;102401.34;5070617;28;20380;-77
2022/03/02 07:30:20;;;;;;;22.27;12.43;;;;;;;3.16;66.48;102397.00;5069962;28;20053;-77
2022/03/02 07:32:46;;;;;;;23.90;10.88;;;;;;;3.24;65.05;102397.28;5070524;28;20119;-77
2022/03/02 07:35:14;;;;;;;21.17;10.15;;;;;;;3.28;65.79;102392.66;5070250;28;20495;-77
2022/03/02 07:37:40;;;;;;;22.80;11.35;;;;;;;3.37;64.27;102405.16;5068969;28;20032;-77
2022/03/02 07:40:06;;;;;;;21.63;9.93;;;;;;;3.54;63.15;102408.34;5070485;28;20021;-77
2022/03/02 07:42:33;;;;;;;21.83;10.13;;;;;;;3.63;62.70;102402.41;5070784;28;20403;-77
2022/03/02 07:44:58;;;;;;;22.88;11.27;;;;;;;3.64;62.50;102389.13;5061480;28;20040;-76
2022/03/02 07:47:24;;;;;;;24.50;9.88;;;;;;;3.87;62.38;102402.38;5069138;28;20029;-77
2022/03/02 07:49:50;;;;;;;19.90;11.05;;;;;;;4.02;61.02;102395.13;5070503;28;20040;-77
2022/03/02 07:52:16;;;;;;;22.15;10.63;;;;;;;4.09;61.56;102391.91;5070654;28;20033;-77
2022/03/02 07:54:43;;;;;;;21.73;12.10;;;;;;;4.14;62.61;102394.22;5068895;28;20051;-77
2022/03/02 07:57:11;;;;;;;24.45;11.70;;;;;;;4.10;61.82;102393.59;5069322;28;20032;-77
2022/03/02 07:59:44;;;;;;;25.35;12.18;;;;;;;4.13;61.17;102385.44;5070208;28;20035;-77
2022/03/02 08:02:12;;;;;;;22.83;11.60;;;;;;;4.30;59.47;102401.81;5070259;28;20021;-77
2022/03/02 08:04:39;;;;;;;24.17;10.15;;;;;;;4.42;59.75;102395.56;5072705;28;20033;-78
2022/03/02 08:07:05;;;;;;;25.85;11.95;;;;;;;4.44;60.33;102396.28;5074280;28;20086;-78
2022/03/02 08:09:31;;;;;;;24.23;9.82;;;;;;;4.59;59.55;102391.63;5074064;28;20028;-77
2022/03/02 08:12:01;;;;;;;22.10;13.43;;;;;;;4.81;59.63;102388.13;5074109;28;20547;-78
2022/03/02 08:14:31;;;;;;;22.20;10.18;;;;;;;5.13;57.88;102390.03;5074019;28;20081;-78
2022/03/02 08:16:56;;;;;;;20.05;9.75;;;;;;;5.56;56.91;102391.84;5074232;28;20035;-78
2022/03/02 08:19:23;;;;;;;20.80;10.70;;;;;;;5.83;55.22;102392.22;5074340;28;20024;-78
2022/03/02 08:22:02;;;;;;;21.85;11.10;;;;;;;5.87;55.54;102388.34;5074095;28;20074;-78
2022/03/02 08:24:30;;;;;;;22.20;11.43;;;;;;;5.98;54.78;102387.50;5073611;28;20121;-78
2022/03/02 08:26:58;;;;;;;19.20;9.07;;;;;;;5.96;53.51;102378.00;5072801;28;20042;-78
2022/03/02 08:29:26;;;;;;;19.75;9.13;;;;;;;5.95;53.58;102377.16;5073739;28;20052;-78
2022/03/02 08:31:54;;;;;;;17.80;9.82;;;;;;;6.02;53.94;102374.81;5073256;28;20053;-78
2022/03/02 08:34:19;;;;;;;22.42;9.73;;;;;;;5.99;53.78;102367.13;5073933;28;20051;-78
2022/03/02 08:36:46;;;;;;;20.25;9.65;;;;;;;5.92;52.32;102369.41;5073839;28;20024;-77
2022/03/02 08:39:14;;;;;;;20.38;9.93;;;;;;;5.90;53.19;102377.50;5072988;28;20033;-77
2022/03/02 08:41:40;;;;;;;19.50;10.13;;;;;;;5.90;51.83;102374.03;5073597;28;20017;-77
2022/03/02 08:44:07;;;;;;;20.50;9.70;;;;;;;5.90;51.15;102374.03;5073585;28;20124;-77
2022/03/02 08:46:32;;;;;;;17.55;8.95;;;;;;;5.92;52.34;102369.41;5073227;28;20036;-77
2022/03/02 08:48:58;;;;;;;18.25;8.05;;;;;;;5.94;50.52;102367.50;5073629;28;20036;-77
2022/03/02 08:51:25;;;;;;;22.48;11.20;;;;;;;5.93;50.15;102373.75;5072156;28;20036;-77
2022/03/02 08:53:53;;;;;;;22.50;10.43;;;;;;;5.88;50.69;102368.00;5073524;28;20452;-77
2022/03/02 08:56:20;;;;;;;21.08;9.15;;;;;;;5.96;51.07;102372.69;5073633;28;20041;-78
2022/03/02 08:58:45;;;;;;;18.75;8.98;;;;;;;6.01;50.74;102373.97;5072890;28;20043;-77
2022/03/02 09:01:12;;;;;;;20.67;10.68;;;;;;;6.09;51.04;102374.16;5073419;28;20519;-77
2022/03/02 09:03:43;;;;;;;20.13;9.30;;;;;;;6.14;49.66;102376.44;5073419;28;20025;-77
2022/03/02 09:06:10;;;;;;;17.67;8.40;;;;;;;6.16;50.86;102363.91;5073129;28;20387;-76
2022/03/02 09:08:37;;;;;;;18.52;8.30;;;;;;;6.23;49.59;102361.56;5071731;28;20593;-77
2022/03/02 09:11:02;;;;;;;20.20;9.90;;;;;;;6.31;49.78;102362.59;5072733;28;20351;-77
2022/03/02 09:13:29;;;;;;;18.83;9.13;;;;;;;6.42;49.18;102363.47;5072367;28;20192;-77
2022/03/02 09:15:54;;;;;;;20.00;9.50;;;;;;;6.53;49.74;102372.19;5070464;28;20024;-77
2022/03/02 09:18:19;;;;;;;21.17;9.30;;;;;;;6.65;48.89;102372.91;5072122;28;20032;-78
2022/03/02 09:20:49;;;;;;;17.67;9.13;;;;;;;6.78;50.18;102365.56;5071378;28;20040;-77
2022/03/02 09:23:16;;;;;;;20.60;9.73;;;;;;;6.98;49.83;102357.69;5071557;28;20044;-78
2022/03/02 09:25:44;;;;;;;20.35;9.98;;;;;;;7.16;49.83;102348.09;5071647;28;20094;-78
2022/03/02 09:28:10;;;;;;;19.42;8.20;;;;;;;7.38;47.77;102351.47;5071545;28;20039;-78
2022/03/02 09:30:36;;;;;;;19.33;10.30;;;;;;;7.69;49.10;102349.53;5071221;28;20048;-78
2022/03/02 09:33:02;;;;;;;23.15;9.75;;;;;;;7.69;46.24;102339.72;5070978;28;20548;-78
2022/03/02 09:35:29;;;;;;;19.70;9.95;;;;;;;7.74;48.02;102341.97;5071792;28;20028;-78
2022/03/02 09:37:56;;;;;;;19.52;10.15;;;;;;;7.85;46.63;102346.28;5071662;28;20387;-78
2022/03/02 09:40:25;;;;;;;20.52;9.38;;;;;;;7.89;46.69;102340.56;5070606;28;20475;-78
2022/03/02 09:43:00;;;;;;;21.45;11.25;;;;;;;7.84;46.06;102336.66;5071217;28;20493;-78
2022/03/02 09:45:28;;;;;;;19.05;9.65;;;;;;;7.88;47.28;102335.38;5071452;28;20032;-78
2022/03/02 09:48:00;;;;;;;18.95;8.45;;;;;;;8.02;46.08;102329.63;5071564;28;20028;-78
2022/03/02 09:50:31;;;;;;;20.45;10.20;;;;;;;8.07;46.04;102330.03;5071099;28;20040;-78
2022/03/02 09:53:00;;;;;;;29.17;9.68;;;;;;;8.15;45.53;102339.09;5071036;28;20034;-78
2022/03/02 09:55:26;;;;;;;17.58;9.27;;;;;;;8.12;45.04;102335.75;5070961;28;20037;-78
2022/03/02 09:57:55;;;;;;;19.35;9.50;;;;;;;8.09;44.63;102336.03;5070062;28;20071;-78
2022/03/02 10:00:23;;;;;;;19.27;10.00;;;;;;;8.05;44.66;102347.09;5071241;28;20028;-78
2022/03/02 10:02:55;;;;;;;16.83;8.40;;;;;;;7.88;44.39;102335.38;5071076;28;20025;-78
2022/03/02 10:05:23;;;;;;;;;;;;;;;7.76;46.64;102337.38;5071737;28;20021;-78
2022/03/02 10:07:59;;;;;;;20.33;8.82;;;;;;;7.61;47.55;102331.63;5071308;28;19913;-78
2022/03/02 10:10:28;;;;;;;18.40;8.85;;;;;;;7.63;45.93;102332.34;5069706;28;20055;-78
2022/03/02 10:12:56;;;;;;;21.63;8.70;;;;;;;7.64;46.14;102341.13;5071029;28;20020;-79
2022/03/02 10:15:22;;;;;;;18.63;10.50;;;;;;;7.65;47.04;102333.03;5070531;28;20084;-78
2022/03/02 10:17:51;;;;;;;21.25;9.75;;;;;;;7.68;44.86;102331.94;5058296;28;20028;-78
2022/03/02 10:20:22;;;;;;;18.27;8.57;;;;;;;7.73;45.12;102326.16;5070887;28;20601;-78
2022/03/02 10:23:03;;;;;;;17.92;8.85;;;;;;;7.89;45.49;102321.97;5070795;28;20028;-78
2022/03/02 10:25:59;;;;;;;18.33;8.60;;;;;;;7.99;46.75;102335.25;5070410;28;20048;-78
2022/03/02 10:28:42;;;;;;;21.35;10.20;;;;;;;8.16;43.69;102333.66;5070591;28;20032;-78
2022/03/02 10:31:48;;;;;;;18.77;8.35;;;;;;;8.24;45.55;102320.47;5067226;28;20044;-78
2022/03/02 10:34:31;;;;;;;20.83;8.88;;;;;;;8.28;43.63;102324.53;5060763;28;20040;-78
2022/03/02 10:37:07;;;;;;;20.60;9.43;;;;;;;8.31;42.95;102316.25;5070529;28;20021;-78
2022/03/02 10:40:09;;;;;;;21.38;10.90;;;;;;;8.34;43.04;102320.44;5069247;28;20025;-78
2022/03/02 10:42:41;;;;;;;17.98;9.85;;;;;;;8.27;42.21;102316.69;5070630;28;20055;-78
2022/03/02 10:45:11;;;;;;;;;;;;;;;8.21;43.03;102318.09;5071125;28;20486;-78
2022/03/02 10:47:52;;;;;;;20.17;9.95;;;;;;;8.20;42.53;102323.56;5070321;28;20307;-78
2022/03/02 10:50:20;;;;;;;20.33;8.90;;;;;;;8.20;41.39;102327.06;5070443;28;20028;-78
2022/03/02 10:52:47;;;;;;;18.63;10.95;;;;;;;8.25;42.88;102316.84;5070627;28;20117;-78
2022/03/02 10:55:13;;;;;;;21.13;10.50;;;;;;;8.43;44.24;102322.25;5070241;28;20032;-78
2022/03/02 10:57:39;;;;;;;17.95;9.90;;;;;;;8.55;41.72;102320.25;5070244;28;20047;-78
2022/03/02 11:00:13;;;;;;;21.30;9.32;;;;;;;8.55;41.77;102315.75;5070281;28;20032;-78
2022/03/02 11:02:43;;;;;;;20.85;9.15;;;;;;;8.58;42.93;102311.16;5069841;28;20036;-79
2022/03/02 11:05:12;;;;;;;19.60;9.23;;;;;;;8.61;41.90;102310.84;5069872;28;20056;-78
2022/03/02 11:07:38;;;;;;;18.88;9.85;;;;;;;8.66;42.16;102309.41;5070055;28;20039;-78
2022/03/02 11:10:09;;;;;;;16.25;8.38;;;;;;;8.69;41.36;102306.44;5070375;28;20036;-78
2022/03/02 11:12:37;;;;;;;20.35;9.23;;;;;;;8.66;42.65;102304.09;5070561;28;20384;-79
2022/03/02 11:15:05;;;;;;;20.55;10.48;;;;;;;8.73;41.06;102307.84;5069735;28;20086;-78
2022/03/02 11:17:31;;;;;;;19.13;9.43;;;;;;;8.80;43.05;102300.09;5069647;28;20503;-78
2022/03/02 11:19:58;;;;;;;18.08;8.73;;;;;;;8.83;40.42;102293.63;5070060;28;20028;-78